createdAt,value
2018-02-15T00:01:57.677Z,55.00
2018-02-15T00:04:25.163Z,55.00
2018-02-15T00:06:52.634Z,55.00
2018-02-15T00:09:20.122Z,55.10
2018-02-15T00:11:47.777Z,55.10
2018-02-15T00:14:15.302Z,55.30
2018-02-15T00:16:42.798Z,55.30
2018-02-15T00:19:10.437Z,55.20
2018-02-15T00:21:38.018Z,55.10
2018-02-15T00:24:05.746Z,55.20
2018-02-15T00:26:33.213Z,55.00
2018-02-15T00:29:00.693Z,54.80
2018-02-15T00:31:29.186Z,54.90
2018-02-15T00:33:56.734Z,54.90
2018-02-15T00:36:24.212Z,55.00
2018-02-15T00:38:51.722Z,54.90
2018-02-15T00:41:19.193Z,54.80
2018-02-15T00:43:46.654Z,54.80
2018-02-15T00:46:14.320Z,54.90
2018-02-15T00:48:41.810Z,55.00
2018-02-15T00:51:09.295Z,55.10
2018-02-15T00:53:36.861Z,55.10
2018-02-15T00:56:04.557Z,55.10
2018-02-15T00:58:32.022Z,55.10
2018-02-15T01:00:59.705Z,55.10
2018-02-15T01:03:27.164Z,55.10
2018-02-15T01:05:54.663Z,54.90
2018-02-15T01:08:22.157Z,55.00
2018-02-15T01:10:49.627Z,55.10
2018-02-15T01:13:17.111Z,55.20
2018-02-15T01:15:44.830Z,55.20
2018-02-15T01:18:13.205Z,55.20
2018-02-15T01:20:40.978Z,55.20
2018-02-15T01:23:08.627Z,55.20
2018-02-15T01:25:36.099Z,55.20
2018-02-15T01:28:03.557Z,55.10
2018-02-15T01:30:31.083Z,55.10
2018-02-15T01:32:58.577Z,55.30
2018-02-15T01:35:26.361Z,55.50
2018-02-15T01:37:53.977Z,55.70
2018-02-15T01:40:21.546Z,55.70
2018-02-15T01:42:49.190Z,55.60
2018-02-15T01:45:16.656Z,55.50
2018-02-15T01:47:44.145Z,55.60
2018-02-15T01:50:11.597Z,55.80
2018-02-15T01:52:39.093Z,55.70
2018-02-15T01:55:06.574Z,55.90
2018-02-15T01:57:34.092Z,56.00
2018-02-15T02:00:01.685Z,55.90
2018-02-15T02:02:29.178Z,55.90
2018-02-15T02:04:56.642Z,55.80
2018-02-15T02:07:24.097Z,55.90
2018-02-15T02:09:51.603Z,56.00
2018-02-15T02:12:19.293Z,55.90
2018-02-15T02:14:46.851Z,55.90
2018-02-15T02:17:14.330Z,55.90
2018-02-15T02:19:41.847Z,55.80
2018-02-15T02:22:09.546Z,55.90
2018-02-15T02:24:37.310Z,56.00
2018-02-15T02:27:05.056Z,56.10
2018-02-15T02:29:32.745Z,56.10
2018-02-15T02:32:00.194Z,56.20
2018-02-15T02:34:27.659Z,56.20
2018-02-15T02:36:55.127Z,56.00
2018-02-15T02:39:22.679Z,55.90
2018-02-15T02:41:50.377Z,55.90
2018-02-15T02:44:17.845Z,55.90
2018-02-15T02:46:45.338Z,55.80
2018-02-15T02:49:12.982Z,55.90
2018-02-15T02:51:40.520Z,56.10
2018-02-15T02:54:07.978Z,56.10
2018-02-15T02:56:35.484Z,55.90
2018-02-15T02:59:02.937Z,55.80
2018-02-15T03:01:30.770Z,55.70
2018-02-15T03:03:58.366Z,55.80
2018-02-15T03:06:25.842Z,55.70
2018-02-15T03:08:53.375Z,55.80
2018-02-15T03:11:20.950Z,56.10
2018-02-15T03:13:49.171Z,56.20
2018-02-15T03:16:16.653Z,56.20
2018-02-15T03:18:44.123Z,56.20
2018-02-15T03:21:11.580Z,56.30
2018-02-15T03:23:39.235Z,56.30
2018-02-15T03:26:06.989Z,56.10
2018-02-15T03:28:34.555Z,56.00
2018-02-15T03:31:02.024Z,55.90
2018-02-15T03:33:29.706Z,55.80
2018-02-15T03:35:57.179Z,55.90
2018-02-15T03:38:24.690Z,55.70
2018-02-15T03:40:52.146Z,55.70
2018-02-15T03:43:19.620Z,55.70
2018-02-15T03:45:47.102Z,55.50
2018-02-15T03:48:14.546Z,55.70
2018-02-15T03:50:42.013Z,55.70
2018-02-15T03:53:09.490Z,55.70
2018-02-15T03:55:36.954Z,55.70
2018-02-15T03:58:04.421Z,55.70
2018-02-15T04:00:31.917Z,55.70
2018-02-15T04:03:00.167Z,55.70
2018-02-15T04:05:27.637Z,55.70
2018-02-15T04:07:55.274Z,55.70
2018-02-15T04:10:22.858Z,55.80
2018-02-15T04:12:50.314Z,55.60
2018-02-15T04:15:18.083Z,55.60
2018-02-15T04:17:45.533Z,55.60
2018-02-15T04:20:13.108Z,55.70
2018-02-15T04:22:41.321Z,56.40
2018-02-15T04:25:08.791Z,55.70
2018-02-15T04:27:36.282Z,55.40
2018-02-15T04:30:04.038Z,55.40
2018-02-15T04:32:31.801Z,55.50
2018-02-15T04:34:59.315Z,55.30
2018-02-15T04:37:26.776Z,55.10
2018-02-15T04:39:54.478Z,55.00
2018-02-15T04:42:22.642Z,55.10
2018-02-15T04:44:50.181Z,55.20
2018-02-15T04:47:17.774Z,55.30
2018-02-15T04:49:45.537Z,55.40
2018-02-15T04:52:13.169Z,55.20
2018-02-15T04:54:40.619Z,55.20
2018-02-15T04:57:08.088Z,55.20
2018-02-15T04:59:35.674Z,55.20
2018-02-15T05:02:03.150Z,55.20
2018-02-15T05:04:30.606Z,55.00
2018-02-15T05:06:58.071Z,55.00
2018-02-15T05:09:25.811Z,55.00
2018-02-15T05:11:53.482Z,54.90
2018-02-15T05:14:21.030Z,54.80
2018-02-15T05:16:48.795Z,54.80
2018-02-15T05:19:16.274Z,54.90
2018-02-15T05:21:44.020Z,54.90
2018-02-15T05:24:11.470Z,54.80
2018-02-15T05:26:39.225Z,54.80
2018-02-15T05:29:06.878Z,54.80
2018-02-15T05:31:34.451Z,54.90
2018-02-15T05:34:02.094Z,54.80
2018-02-15T05:36:29.607Z,54.80
2018-02-15T05:38:57.131Z,54.30
2018-02-15T05:41:24.588Z,54.70
2018-02-15T05:43:52.234Z,54.70
2018-02-15T05:46:19.817Z,54.70
2018-02-15T05:48:47.288Z,54.90
2018-02-15T05:51:15.034Z,55.00
2018-02-15T05:53:42.796Z,54.90
2018-02-15T05:56:10.507Z,54.90
2018-02-15T05:58:38.168Z,54.90
2018-02-15T06:01:05.634Z,54.80
2018-02-15T06:03:33.226Z,54.80
2018-02-15T06:06:00.677Z,54.60
2018-02-15T06:08:28.137Z,54.60
2018-02-15T06:10:55.593Z,54.60
2018-02-15T06:13:23.071Z,54.40
2018-02-15T06:15:50.592Z,54.30
2018-02-15T06:18:18.127Z,54.20
2018-02-15T06:20:45.593Z,54.20
2018-02-15T06:23:13.050Z,54.30
2018-02-15T06:25:40.510Z,54.20
2018-02-15T06:28:08.022Z,54.20
2018-02-15T06:30:35.489Z,54.10
2018-02-15T06:33:02.955Z,54.20
2018-02-15T06:35:30.468Z,54.20
2018-02-15T06:37:58.041Z,54.20
2018-02-15T06:40:25.681Z,53.90
2018-02-15T06:42:53.450Z,54.00
2018-02-15T06:45:20.907Z,53.80
2018-02-15T06:47:48.365Z,53.70
2018-02-15T06:50:15.846Z,53.70
2018-02-15T06:52:43.322Z,53.60
2018-02-15T06:55:10.779Z,53.40
2018-02-15T06:57:38.576Z,53.30
2018-02-15T07:00:06.037Z,53.20
2018-02-15T07:02:33.717Z,52.90
2018-02-15T07:05:01.202Z,52.90
2018-02-15T07:07:28.849Z,52.80
2018-02-15T07:09:56.398Z,52.90
2018-02-15T07:12:24.032Z,52.90
2018-02-15T07:14:51.498Z,52.70
2018-02-15T07:17:18.954Z,52.60
2018-02-15T07:19:46.695Z,53.00
2018-02-15T07:22:14.284Z,52.50
2018-02-15T07:24:41.958Z,52.40
2018-02-15T07:27:09.507Z,52.50
2018-02-15T07:29:37.182Z,52.50
2018-02-15T07:32:04.734Z,52.60
2018-02-15T07:34:32.225Z,52.60
2018-02-15T07:36:59.955Z,52.50
2018-02-15T07:39:27.727Z,52.50
2018-02-15T07:41:55.174Z,52.30
2018-02-15T07:44:22.646Z,52.50
2018-02-15T07:46:50.097Z,52.40
2018-02-15T07:49:17.554Z,52.40
2018-02-15T07:51:45.216Z,52.40
2018-02-15T07:54:12.681Z,52.40
2018-02-15T07:56:40.181Z,52.30
2018-02-15T07:59:07.682Z,52.10
2018-02-15T08:01:35.142Z,52.00
2018-02-15T08:04:02.645Z,51.90
2018-02-15T08:06:30.057Z,51.80
2018-02-15T08:08:57.826Z,51.70
2018-02-15T08:11:25.451Z,51.60
2018-02-15T08:13:52.950Z,51.50
2018-02-15T08:16:20.424Z,51.30
2018-02-15T08:18:47.944Z,51.20
2018-02-15T08:21:15.571Z,51.20
2018-02-15T08:23:43.179Z,50.90
2018-02-15T08:26:10.633Z,50.70
2018-02-15T08:28:38.103Z,50.50
2018-02-15T08:31:05.850Z,50.40
2018-02-15T08:33:34.843Z,50.40
2018-02-15T08:36:02.319Z,50.40
2018-02-15T08:38:29.927Z,50.20
2018-02-15T08:40:57.440Z,50.10
2018-02-15T08:43:24.980Z,50.00
2018-02-15T08:45:52.744Z,50.00
2018-02-15T08:48:20.402Z,49.80
2018-02-15T08:50:47.872Z,49.80
2018-02-15T08:53:15.417Z,49.60
2018-02-15T08:55:43.075Z,49.40
2018-02-15T08:58:10.588Z,49.30
2018-02-15T09:00:38.110Z,49.30
2018-02-15T09:03:05.549Z,49.00
2018-02-15T09:05:33.014Z,49.00
2018-02-15T09:08:00.774Z,48.90
2018-02-15T09:10:28.544Z,48.80
2018-02-15T09:12:56.302Z,48.80
2018-02-15T09:15:23.906Z,48.70
2018-02-15T09:17:51.510Z,48.60
2018-02-15T09:20:18.998Z,48.40
2018-02-15T09:22:46.649Z,48.20
2018-02-15T09:31:02.895Z,47.90
2018-02-15T09:33:30.368Z,47.90
2018-02-15T09:35:57.842Z,47.80
2018-02-15T09:38:25.302Z,47.70
2018-02-15T09:40:52.776Z,47.60
2018-02-15T09:43:20.243Z,47.40
2018-02-15T09:45:47.761Z,47.30
2018-02-15T09:48:15.201Z,47.30
2018-02-15T09:50:42.666Z,47.20
2018-02-15T09:53:10.127Z,46.90
2018-02-15T09:55:37.606Z,46.90
2018-02-15T09:58:05.080Z,47.00
2018-02-15T10:00:33.345Z,46.70
2018-02-15T10:03:00.808Z,46.60
2018-02-15T10:05:28.274Z,46.40
2018-02-15T10:07:56.506Z,46.40
2018-02-15T10:10:23.994Z,46.20
2018-02-15T10:12:51.453Z,46.00
2018-02-15T10:15:18.916Z,45.90
2018-02-15T10:17:47.153Z,45.70
2018-02-15T10:20:14.611Z,45.60
2018-02-15T10:22:42.112Z,45.50
2018-02-15T10:25:10.344Z,45.40
2018-02-15T10:27:37.828Z,45.30
2018-02-15T10:30:05.284Z,45.30
2018-02-15T10:32:32.787Z,45.10
2018-02-15T10:35:00.347Z,44.80
2018-02-15T10:37:27.811Z,44.90
2018-02-15T10:39:55.276Z,44.80
2018-02-15T10:42:22.743Z,44.70
2018-02-15T10:44:50.203Z,44.40
2018-02-15T10:47:17.684Z,44.20
2018-02-15T10:49:45.163Z,44.00
2018-02-15T10:52:12.623Z,44.00
2018-02-15T10:54:40.849Z,43.50
2018-02-15T10:57:08.316Z,43.40
2018-02-15T10:59:35.839Z,43.50
2018-02-15T11:02:08.938Z,43.60
2018-02-15T11:04:36.402Z,43.40
2018-02-15T11:07:03.921Z,43.20
2018-02-15T11:09:31.406Z,43.10
2018-02-15T11:11:58.866Z,43.30
2018-02-15T11:14:26.379Z,43.40
2018-02-15T11:16:54.611Z,43.80
2018-02-15T11:19:22.067Z,43.80
2018-02-15T11:21:49.551Z,43.90
2018-02-15T11:24:17.016Z,44.00
2018-02-15T11:26:44.494Z,44.30
2018-02-15T11:29:11.991Z,44.60
2018-02-15T11:31:39.460Z,44.50
2018-02-15T11:34:06.918Z,44.80
2018-02-15T11:36:34.378Z,45.00
2018-02-15T11:39:01.859Z,45.50
2018-02-15T11:41:30.089Z,46.80
2018-02-15T11:43:57.563Z,47.30
2018-02-15T11:46:26.548Z,47.60
2018-02-15T11:48:54.010Z,47.10
2018-02-15T11:51:21.470Z,47.30
2018-02-15T11:53:48.951Z,47.60
2018-02-15T11:56:16.420Z,47.80
2018-02-15T11:58:43.874Z,48.10
2018-02-15T12:01:11.372Z,48.30
2018-02-15T12:03:38.839Z,48.60
2018-02-15T12:06:06.292Z,48.90
2018-02-15T12:08:33.762Z,49.40
2018-02-15T12:11:01.225Z,49.50
2018-02-15T12:13:28.686Z,49.70
2018-02-15T12:15:56.147Z,50.70
2018-02-15T12:18:23.610Z,50.50
2018-02-15T12:20:51.076Z,50.70
2018-02-15T12:23:19.306Z,50.80
2018-02-15T12:25:46.782Z,50.90
2018-02-15T12:28:14.251Z,51.00
2018-02-15T12:30:41.714Z,51.10
2018-02-15T12:33:09.182Z,51.20
2018-02-15T12:35:36.654Z,51.20
2018-02-15T12:38:04.134Z,51.40
2018-02-15T12:40:31.619Z,51.70
2018-02-15T12:42:59.083Z,51.90
2018-02-15T12:45:26.550Z,51.90
2018-02-15T12:47:54.012Z,51.90
2018-02-15T12:50:21.470Z,51.80
2018-02-15T12:52:48.937Z,51.90
2018-02-15T12:55:17.183Z,52.60
2018-02-15T12:57:44.658Z,52.60
2018-02-15T13:00:12.138Z,53.20
2018-02-15T13:02:39.600Z,53.50
2018-02-15T13:05:07.084Z,53.60
2018-02-15T13:07:34.548Z,53.60
2018-02-15T13:10:02.027Z,53.60
2018-02-15T13:12:41.327Z,53.80
2018-02-15T13:15:20.753Z,54.00
2018-02-15T13:17:48.207Z,54.10
2018-02-15T13:20:19.378Z,54.20
2018-02-15T13:22:48.467Z,54.20
2018-02-15T13:25:15.947Z,54.40
2018-02-15T13:27:55.090Z,54.50
2018-02-15T13:30:22.562Z,54.70
2018-02-15T13:32:50.791Z,55.40
2018-02-15T13:35:18.280Z,55.40
2018-02-15T13:37:45.736Z,55.50
2018-02-15T13:40:13.195Z,55.60
2018-02-15T13:42:40.679Z,55.80
2018-02-15T13:45:08.166Z,56.10
2018-02-15T13:47:35.644Z,56.30
2018-02-15T13:50:03.104Z,56.60
2018-02-15T13:52:30.579Z,56.70
2018-02-15T13:54:58.085Z,56.90
2018-02-15T13:57:25.546Z,57.00
2018-02-15T13:59:53.016Z,57.40
2018-02-15T14:02:20.482Z,57.40
2018-02-15T14:04:47.971Z,57.70
2018-02-15T14:07:15.477Z,57.90
2018-02-15T14:09:42.983Z,57.80
2018-02-15T14:12:11.311Z,58.10
2018-02-15T14:14:39.760Z,58.30
2018-02-15T14:17:07.210Z,58.20
2018-02-15T14:19:34.680Z,58.00
2018-02-15T14:22:02.160Z,58.70
2018-02-15T14:24:29.695Z,58.00
2018-02-15T14:26:57.234Z,57.90
2018-02-15T14:29:24.738Z,58.40
2018-02-15T14:31:52.250Z,58.70
2018-02-15T14:34:19.710Z,58.60
2018-02-15T14:36:47.178Z,59.00
2018-02-15T14:39:14.630Z,59.20
2018-02-15T14:41:42.096Z,59.20
2018-02-15T14:44:09.646Z,59.20
2018-02-15T14:46:37.900Z,59.80
2018-02-15T14:49:05.419Z,59.80
2018-02-15T14:51:32.942Z,60.20
2018-02-15T14:54:01.209Z,60.60
2018-02-15T14:56:28.676Z,60.60
2018-02-15T14:58:56.138Z,60.50
2018-02-15T15:01:23.619Z,60.70
2018-02-15T15:03:51.082Z,60.60
2018-02-15T15:06:18.563Z,60.70
2018-02-15T15:08:46.115Z,60.80
2018-02-15T15:11:13.609Z,61.30
2018-02-15T15:13:41.140Z,61.30
2018-02-15T15:16:08.601Z,61.30
2018-02-15T15:18:36.072Z,61.70
2018-02-15T15:21:03.608Z,61.80
2018-02-15T15:23:31.074Z,62.20
2018-02-15T15:25:58.538Z,62.40
2018-02-15T15:28:26.011Z,62.10
2018-02-15T15:30:54.258Z,62.40
2018-02-15T15:33:21.748Z,62.30
2018-02-15T15:35:49.235Z,62.20
2018-02-15T15:38:16.726Z,62.50
2018-02-15T15:40:44.973Z,63.20
2018-02-15T15:43:12.479Z,63.00
2018-02-15T15:45:39.962Z,62.80
2018-02-15T15:48:07.560Z,63.20
2018-02-15T15:50:35.039Z,62.50
2018-02-15T15:53:02.510Z,62.70
2018-02-15T15:55:29.967Z,62.80
2018-02-15T15:57:57.457Z,63.00
2018-02-15T16:00:36.249Z,63.30
2018-02-15T16:03:06.313Z,63.30
2018-02-15T16:05:35.803Z,63.20
2018-02-15T16:08:05.031Z,63.20
2018-02-15T16:10:34.658Z,63.40
2018-02-15T16:13:03.459Z,63.50
2018-02-15T16:15:33.183Z,63.50
2018-02-15T16:18:03.775Z,63.60
2018-02-15T16:20:33.694Z,63.60
2018-02-15T16:23:03.163Z,63.80
2018-02-15T16:25:31.777Z,64.00
2018-02-15T16:28:00.712Z,64.10
2018-02-15T16:30:29.792Z,64.20
2018-02-15T16:32:58.310Z,64.10
2018-02-15T16:35:27.669Z,64.20
2018-02-15T16:37:55.823Z,64.30
2018-02-15T16:40:24.304Z,64.30
2018-02-15T16:42:52.303Z,64.60
2018-02-15T16:45:20.448Z,65.50
2018-02-15T16:47:48.154Z,65.00
2018-02-15T16:50:16.727Z,65.00
2018-02-15T16:52:44.577Z,65.10
2018-02-15T16:55:12.426Z,65.00
2018-02-15T16:57:40.422Z,65.00
2018-02-15T17:00:08.135Z,65.00
2018-02-15T17:02:36.300Z,65.10
2018-02-15T17:05:04.399Z,65.40
2018-02-15T17:07:33.502Z,65.40
2018-02-15T17:10:03.496Z,65.50
2018-02-15T17:12:31.747Z,65.50
2018-02-15T17:14:59.883Z,65.40
2018-02-15T17:17:27.699Z,65.40
2018-02-15T17:19:55.838Z,65.60
2018-02-15T17:22:24.364Z,66.60
2018-02-15T17:24:53.096Z,66.00
2018-02-15T17:27:20.829Z,66.30
2018-02-15T17:29:48.676Z,66.10
2018-02-15T17:32:18.134Z,66.30
2018-02-15T17:34:45.990Z,66.20
2018-02-15T17:37:14.046Z,66.30
2018-02-15T17:39:41.888Z,66.40
2018-02-15T17:42:09.987Z,66.60
2018-02-15T17:44:39.446Z,67.00
2018-02-15T17:47:07.946Z,67.00
2018-02-15T17:49:35.975Z,67.00
2018-02-15T17:52:06.881Z,67.20
2018-02-15T17:54:34.864Z,67.30
2018-02-15T17:57:03.713Z,67.30
2018-02-15T17:59:32.618Z,67.60
2018-02-15T18:02:01.877Z,67.70
2018-02-15T18:04:30.612Z,67.70
2018-02-15T18:07:00.237Z,67.60
2018-02-15T18:09:28.755Z,67.80
2018-02-15T18:11:59.476Z,67.60
2018-02-15T18:14:29.725Z,67.50
2018-02-15T18:16:58.089Z,67.50
2018-02-15T18:19:26.932Z,67.50
2018-02-15T18:21:54.929Z,67.30
2018-02-15T18:24:23.573Z,67.50
2018-02-15T18:26:51.307Z,67.30
2018-02-15T18:29:19.061Z,67.30
2018-02-15T18:31:46.879Z,67.20
2018-02-15T18:34:14.784Z,67.20
2018-02-15T18:36:43.652Z,67.60
2018-02-15T18:39:12.389Z,68.30
2018-02-15T18:41:40.560Z,68.30
2018-02-15T18:44:08.381Z,68.20
2018-02-15T18:46:36.249Z,68.20
2018-02-15T18:49:04.562Z,68.20
2018-02-15T18:51:32.472Z,68.10
2018-02-15T18:54:00.244Z,67.90
2018-02-15T18:56:27.973Z,67.70
2018-02-15T18:58:56.388Z,67.50
2018-02-15T19:01:24.153Z,67.70
2018-02-15T19:03:51.901Z,67.80
2018-02-15T19:06:20.460Z,67.80
2018-02-15T19:08:48.189Z,67.80
2018-02-15T19:11:15.812Z,67.70
2018-02-15T19:13:45.020Z,67.70
2018-02-15T19:16:12.836Z,68.30
2018-02-15T19:18:42.045Z,68.60
2018-02-15T19:21:10.101Z,68.60
2018-02-15T19:23:38.387Z,68.50
2018-02-15T19:26:07.691Z,68.40
2018-02-15T19:28:35.374Z,68.00
2018-02-15T19:31:05.011Z,68.00
2018-02-15T19:33:33.778Z,68.00
2018-02-15T19:36:02.372Z,67.90
2018-02-15T19:38:30.635Z,68.00
2018-02-15T19:41:00.581Z,68.10
2018-02-15T19:43:29.436Z,68.20
2018-02-15T19:45:57.573Z,68.70
2018-02-15T19:48:26.127Z,68.90
2018-02-15T19:50:56.830Z,69.50
2018-02-15T19:53:24.917Z,69.50
2018-02-15T19:55:55.309Z,69.10
2018-02-15T19:58:29.689Z,69.10
2018-02-15T20:00:58.790Z,69.10
2018-02-15T20:03:28.766Z,69.30
2018-02-15T20:05:57.662Z,69.30
2018-02-15T20:08:26.535Z,69.20
2018-02-15T20:10:56.071Z,68.80
2018-02-15T20:13:24.756Z,68.60
2018-02-15T20:15:52.979Z,68.40
2018-02-15T20:18:20.696Z,68.40
2018-02-15T20:20:50.026Z,68.50
2018-02-15T20:23:18.192Z,69.00
2018-02-15T20:25:53.294Z,68.40
2018-02-15T20:28:27.964Z,68.40
2018-02-15T20:30:57.493Z,68.50
2018-02-15T20:33:26.903Z,68.70
2018-02-15T20:35:55.794Z,68.80
2018-02-15T20:38:29.641Z,69.10
2018-02-15T20:40:58.252Z,69.20
2018-02-15T20:43:27.669Z,69.00
2018-02-15T20:45:56.287Z,69.00
2018-02-15T20:48:25.922Z,69.00
2018-02-15T20:51:01.202Z,68.90
2018-02-15T20:53:34.795Z,68.90
2018-02-15T20:56:05.558Z,68.60
2018-02-15T20:58:34.235Z,68.60
2018-02-15T21:01:02.768Z,68.70
2018-02-15T21:03:31.781Z,68.60
2018-02-15T21:06:00.240Z,68.60
2018-02-15T21:08:28.491Z,68.60
2018-02-15T21:10:57.699Z,68.90
2018-02-15T21:13:27.498Z,69.00
2018-02-15T21:15:56.572Z,69.20
2018-02-15T21:18:25.662Z,69.20
2018-02-15T21:20:54.219Z,69.10
2018-02-15T21:23:22.745Z,69.10
2018-02-15T21:25:51.923Z,69.20
2018-02-15T21:28:19.644Z,69.20
2018-02-15T21:30:47.846Z,69.00
2018-02-15T21:33:16.679Z,69.10
2018-02-15T21:35:44.792Z,69.00
2018-02-15T21:38:13.527Z,69.10
2018-02-15T21:40:41.586Z,69.10
2018-02-15T21:43:09.516Z,69.00
2018-02-15T21:45:37.091Z,69.20
2018-02-15T21:48:05.015Z,69.10
2018-02-15T21:50:34.116Z,69.10
2018-02-15T21:53:02.996Z,69.10
2018-02-15T21:55:31.780Z,69.10
2018-02-15T21:58:00.683Z,69.20
2018-02-15T22:00:28.292Z,69.00
2018-02-15T22:02:55.779Z,69.00
2018-02-15T22:05:23.236Z,69.10
2018-02-15T22:07:50.719Z,68.90
2018-02-15T22:10:18.179Z,69.70
2018-02-15T22:12:45.650Z,69.00
2018-02-15T22:15:13.124Z,69.40
2018-02-15T22:17:40.603Z,69.60
2018-02-15T22:20:08.059Z,70.30
2018-02-15T22:22:35.736Z,69.40
2018-02-15T22:25:03.198Z,69.30
2018-02-15T22:27:30.654Z,69.30
2018-02-15T22:29:58.122Z,69.30
2018-02-15T22:32:25.581Z,69.50
2018-02-15T22:34:53.058Z,69.80
2018-02-15T22:37:20.530Z,69.90
2018-02-15T22:39:48.018Z,69.80
2018-02-15T22:42:15.481Z,70.10
2018-02-15T22:44:42.935Z,70.10
2018-02-15T22:47:10.400Z,69.90
2018-02-15T22:49:37.878Z,70.10
2018-02-15T22:52:06.124Z,70.40
2018-02-15T22:54:33.600Z,70.30
2018-02-15T22:57:01.063Z,70.30
2018-02-15T22:59:28.551Z,70.50
2018-02-15T23:01:56.020Z,70.30
2018-02-15T23:04:23.478Z,70.30
2018-02-15T23:06:50.955Z,70.10
2018-02-15T23:09:18.427Z,69.90
2018-02-15T23:11:45.900Z,69.90
2018-02-15T23:14:14.170Z,69.80
2018-02-15T23:16:41.642Z,69.70
2018-02-15T23:19:09.107Z,69.60
2018-02-15T23:21:36.584Z,69.30
2018-02-15T23:24:04.047Z,69.50
2018-02-15T23:26:31.532Z,69.90
2018-02-15T23:28:58.988Z,70.00
2018-02-15T23:31:26.454Z,70.00
2018-02-15T23:33:53.914Z,70.50
2018-02-15T23:36:21.379Z,70.80
2018-02-15T23:38:48.841Z,70.80
2018-02-15T23:41:17.083Z,70.50
2018-02-15T23:43:44.558Z,70.50
2018-02-15T23:46:12.024Z,70.10
2018-02-15T23:48:39.479Z,69.90
2018-02-15T23:51:07.026Z,69.80
2018-02-15T23:53:34.475Z,70.10
2018-02-15T23:56:02.035Z,69.80
2018-02-15T23:58:29.528Z,70.10
